createdAt,value
2022-08-02T00:00:12.610Z,2.67
2022-08-02T00:02:39.542Z,2.80
2022-08-02T00:05:07.178Z,2.80
2022-08-02T00:07:40.534Z,2.40
2022-08-02T00:10:10.676Z,2.40
2022-08-02T00:12:38.672Z,2.70
2022-08-02T00:15:07.447Z,3.00
2022-08-02T00:17:34.151Z,2.77
2022-08-02T00:20:02.270Z,2.57
2022-08-02T00:22:29.110Z,2.93
2022-08-02T00:24:55.888Z,2.93
2022-08-02T00:27:22.880Z,2.90
2022-08-02T00:29:52.906Z,2.27
2022-08-02T00:32:24.587Z,3.30
2022-08-02T00:34:51.449Z,2.90
2022-08-02T00:37:19.179Z,2.63
2022-08-02T00:39:46.008Z,2.87
2022-08-02T00:42:15.802Z,3.00
2022-08-02T00:44:42.669Z,2.70
2022-08-02T00:47:09.597Z,2.80
2022-08-02T00:49:36.378Z,3.10
2022-08-02T00:52:03.162Z,3.40
2022-08-02T00:54:29.943Z,3.07
2022-08-02T00:56:56.620Z,3.00
2022-08-02T00:59:23.500Z,2.90
2022-08-02T01:01:56.198Z,3.10
2022-08-02T01:04:30.077Z,2.80
2022-08-02T01:06:59.713Z,3.07
2022-08-02T01:09:26.796Z,2.83
2022-08-02T01:11:53.470Z,3.00
2022-08-02T01:14:20.445Z,2.90
2022-08-02T01:16:53.186Z,2.90
2022-08-02T01:19:45.178Z,2.73
2022-08-02T01:23:03.593Z,3.87
2022-08-02T01:25:56.477Z,3.20
2022-08-02T01:28:26.088Z,3.10
2022-08-02T01:31:21.239Z,3.00
2022-08-02T01:34:11.845Z,3.20
2022-08-02T01:36:40.873Z,3.10
2022-08-02T01:39:11.614Z,2.87
2022-08-02T01:41:58.889Z,2.70
2022-08-02T01:44:27.842Z,3.10
2022-08-02T01:46:59.792Z,3.53
2022-08-02T01:49:27.683Z,3.20
2022-08-02T01:52:13.983Z,2.90
2022-08-02T01:54:41.254Z,3.00
2022-08-02T01:57:10.399Z,2.77
2022-08-02T01:59:38.080Z,2.73
2022-08-02T02:02:08.320Z,3.03
2022-08-02T02:04:35.830Z,3.50
2022-08-02T02:07:03.159Z,3.43
2022-08-02T02:09:31.774Z,3.27
2022-08-02T02:12:10.216Z,3.37
2022-08-02T02:14:41.285Z,3.17
2022-08-02T02:18:10.615Z,3.43
2022-08-02T02:20:08.008Z,3.10
2022-08-02T02:22:34.635Z,2.90
2022-08-02T02:25:01.713Z,3.63
2022-08-02T02:27:32.491Z,3.00
2022-08-02T02:30:00.098Z,3.30
2022-08-02T02:32:28.342Z,3.50
2022-08-02T02:34:56.550Z,3.27
2022-08-02T02:37:24.231Z,3.67
2022-08-02T02:39:52.556Z,3.83
2022-08-02T02:42:24.387Z,4.00
2022-08-02T02:44:51.977Z,3.67
2022-08-02T02:47:19.310Z,3.57
2022-08-02T02:49:48.716Z,3.63
2022-08-02T02:52:16.845Z,3.70
2022-08-02T02:54:45.546Z,3.90
2022-08-02T02:57:12.290Z,3.60
2022-08-02T02:59:42.604Z,3.20
2022-08-02T03:02:17.651Z,3.33
2022-08-02T03:04:57.339Z,3.37
2022-08-02T03:07:26.477Z,3.60
2022-08-02T03:09:53.917Z,3.47
2022-08-02T03:12:27.117Z,3.20
2022-08-02T03:15:00.429Z,3.23
2022-08-02T03:17:37.693Z,3.30
2022-08-02T03:20:11.826Z,3.50
2022-08-02T03:22:38.545Z,3.10
2022-08-02T03:25:07.643Z,3.30
2022-08-02T03:27:34.282Z,3.10
2022-08-02T03:30:02.189Z,2.90
2022-08-02T03:32:29.000Z,3.40
2022-08-02T03:34:55.724Z,3.57
2022-08-02T03:37:22.839Z,3.50
2022-08-02T03:39:52.705Z,3.17
2022-08-02T03:42:21.627Z,2.90
2022-08-02T03:44:49.041Z,3.00
2022-08-02T03:47:15.958Z,2.90
2022-08-02T03:49:43.326Z,3.00
2022-08-02T03:52:10.263Z,3.20
2022-08-02T03:54:45.226Z,3.47
2022-08-02T03:57:12.179Z,3.37
2022-08-02T03:59:45.891Z,3.13
2022-08-02T04:02:13.379Z,3.33
2022-08-02T04:04:40.555Z,3.17
2022-08-02T04:07:07.752Z,3.30
2022-08-02T04:09:34.560Z,3.23
2022-08-02T04:12:01.557Z,3.63
2022-08-02T04:14:28.312Z,3.30
2022-08-02T04:17:02.188Z,3.60
2022-08-02T04:19:36.420Z,3.87
2022-08-02T04:22:04.996Z,3.40
2022-08-02T04:24:36.891Z,3.90
2022-08-02T04:27:06.732Z,3.70
2022-08-02T04:29:48.208Z,3.97
2022-08-02T04:32:15.458Z,3.70
2022-08-02T04:34:54.209Z,3.90
2022-08-02T04:37:29.912Z,3.33
2022-08-02T04:39:56.580Z,3.70
2022-08-02T04:42:25.196Z,3.97
2022-08-02T04:44:52.874Z,3.80
2022-08-02T04:48:01.410Z,4.10
2022-08-02T04:50:09.784Z,4.10
2022-08-02T04:52:36.541Z,4.80
2022-08-02T04:55:03.353Z,4.83
2022-08-02T04:57:52.514Z,4.40
2022-08-02T05:00:20.072Z,4.77
2022-08-02T05:02:47.479Z,4.47
2022-08-02T05:05:14.435Z,4.30
2022-08-02T05:07:41.210Z,4.30
2022-08-02T05:10:08.315Z,5.13
2022-08-02T05:12:34.905Z,4.70
2022-08-02T05:15:01.553Z,5.17
2022-08-02T05:17:28.231Z,4.67
2022-08-02T05:19:54.881Z,4.80
2022-08-02T05:22:21.508Z,4.33
2022-08-02T05:24:48.115Z,5.03
2022-08-02T05:27:17.403Z,4.50
2022-08-02T05:29:52.936Z,5.00
2022-08-02T05:32:23.781Z,5.37
2022-08-02T05:34:52.380Z,5.00
2022-08-02T05:37:19.173Z,5.07
2022-08-02T05:39:55.414Z,5.70
2022-08-02T05:42:23.423Z,5.17
2022-08-02T05:44:50.175Z,4.47
2022-08-02T05:47:16.948Z,5.50
2022-08-02T05:49:43.688Z,4.97
2022-08-02T05:52:17.040Z,4.30
2022-08-02T05:55:09.872Z,4.40
2022-08-02T05:57:56.138Z,4.20
2022-08-02T06:00:23.089Z,3.70
2022-08-02T06:03:10.021Z,4.30
2022-08-02T06:05:50.438Z,4.10
2022-08-02T06:08:17.501Z,4.20
2022-08-02T06:10:45.312Z,3.70
2022-08-02T06:13:14.422Z,3.80
2022-08-02T06:15:52.787Z,4.73
2022-08-02T06:18:27.753Z,5.37
2022-08-02T06:20:57.688Z,5.60
2022-08-02T06:23:26.456Z,5.80
2022-08-02T06:25:53.596Z,5.43
2022-08-02T06:28:20.985Z,5.10
2022-08-02T06:30:47.861Z,6.67
2022-08-02T06:33:14.791Z,7.77
2022-08-02T06:36:00.116Z,7.30
2022-08-02T06:38:30.681Z,7.83
2022-08-02T06:41:06.688Z,8.90
2022-08-02T06:43:54.907Z,12.10
2022-08-02T06:46:53.362Z,10.83
2022-08-02T06:49:08.811Z,10.37
2022-08-02T06:51:35.509Z,9.73
2022-08-02T06:54:02.201Z,9.60
2022-08-02T06:56:28.773Z,7.87
2022-08-02T06:58:55.398Z,8.87
2022-08-02T07:01:22.092Z,8.43
2022-08-02T07:03:48.840Z,7.60
2022-08-02T07:06:15.454Z,8.03
2022-08-02T07:08:50.929Z,7.23
2022-08-02T07:11:26.181Z,7.17
2022-08-02T07:13:52.797Z,7.33
2022-08-02T07:16:19.373Z,6.73
2022-08-02T07:18:46.014Z,5.77
2022-08-02T07:21:12.627Z,5.87
2022-08-02T07:23:39.419Z,5.27
2022-08-02T07:26:06.098Z,5.67
2022-08-02T07:28:32.762Z,5.43
2022-08-02T07:30:59.337Z,5.03
2022-08-02T07:33:37.543Z,5.30
2022-08-02T07:36:06.961Z,5.67
2022-08-02T07:38:35.491Z,5.80
2022-08-02T07:41:04.114Z,5.33
2022-08-02T07:43:30.742Z,4.20
2022-08-02T07:46:00.741Z,7.47
2022-08-02T07:48:28.068Z,4.10
2022-08-02T07:50:54.703Z,3.40
2022-08-02T07:53:49.949Z,3.53
2022-08-02T07:56:08.035Z,3.80
2022-08-02T07:58:34.635Z,3.83
2022-08-02T08:01:01.334Z,3.77
2022-08-02T08:03:28.357Z,3.50
2022-08-02T08:05:55.010Z,6.90
2022-08-02T08:08:21.773Z,3.23
2022-08-02T08:10:48.666Z,3.70
2022-08-02T08:13:15.965Z,3.60
2022-08-02T08:15:51.475Z,3.50
2022-08-02T08:18:19.899Z,5.97
2022-08-02T08:20:46.516Z,3.70
2022-08-02T08:23:13.246Z,5.00
2022-08-02T08:25:42.067Z,4.10
2022-08-02T08:28:08.943Z,4.10
2022-08-02T08:30:35.686Z,3.87
2022-08-02T08:33:03.016Z,3.83
2022-08-02T08:35:29.693Z,5.03
2022-08-02T08:37:56.418Z,4.23
2022-08-02T08:40:25.200Z,3.53
2022-08-02T08:42:51.841Z,4.50
2022-08-02T08:45:18.645Z,4.03
2022-08-02T08:47:51.835Z,3.23
2022-08-02T08:50:25.805Z,4.83
2022-08-02T08:52:58.089Z,3.63
2022-08-02T08:55:26.471Z,3.23
2022-08-02T08:57:54.991Z,3.73
2022-08-02T09:00:21.671Z,3.20
2022-08-02T09:02:48.275Z,3.33
2022-08-02T09:05:16.745Z,2.97
2022-08-02T09:07:45.119Z,3.97
2022-08-02T09:10:33.723Z,3.90
2022-08-02T09:13:38.839Z,2.80
2022-08-02T09:16:12.792Z,2.87
2022-08-02T09:18:45.175Z,4.60
2022-08-02T09:21:13.266Z,2.30
2022-08-02T09:23:42.307Z,2.53
2022-08-02T09:26:11.041Z,2.70
2022-08-02T09:28:40.017Z,2.83
2022-08-02T09:31:14.223Z,2.80
2022-08-02T09:33:42.824Z,2.43
2022-08-02T09:36:15.090Z,3.00
2022-08-02T09:38:55.297Z,2.43
2022-08-02T09:41:24.412Z,3.40
2022-08-02T09:44:03.438Z,2.43
2022-08-02T09:46:38.480Z,5.10
2022-08-02T09:49:10.912Z,4.27
2022-08-02T09:51:40.222Z,2.40
2022-08-02T09:54:09.724Z,3.03
2022-08-02T09:56:42.060Z,2.33
2022-08-02T09:59:09.728Z,3.00
2022-08-02T10:01:37.877Z,2.90
2022-08-02T10:04:07.734Z,2.50
2022-08-02T10:06:35.073Z,2.60
2022-08-02T10:09:01.738Z,3.47
2022-08-02T10:11:28.825Z,2.20
2022-08-02T10:13:56.137Z,2.97
2022-08-02T10:16:23.726Z,2.50
2022-08-02T10:18:54.986Z,2.80
2022-08-02T10:21:30.899Z,2.30
2022-08-02T10:24:10.849Z,2.20
2022-08-02T10:26:41.285Z,3.50
2022-08-02T10:29:09.575Z,2.07
2022-08-02T10:31:47.820Z,2.50
2022-08-02T10:34:18.350Z,2.00
2022-08-02T10:36:45.700Z,2.40
2022-08-02T10:39:13.088Z,3.17
2022-08-02T10:41:43.803Z,4.10
2022-08-02T10:44:27.476Z,2.10
2022-08-02T10:47:14.986Z,2.10
2022-08-02T10:49:50.620Z,2.87
2022-08-02T10:52:18.440Z,2.67
2022-08-02T10:55:14.630Z,4.17
2022-08-02T10:58:19.252Z,2.87
2022-08-02T11:00:46.156Z,2.00
2022-08-02T11:03:39.333Z,1.90
2022-08-02T11:06:25.423Z,2.57
2022-08-02T11:09:41.227Z,2.10
2022-08-02T11:12:13.469Z,1.63
2022-08-02T11:14:42.458Z,1.90
2022-08-02T11:17:14.442Z,1.87
2022-08-02T11:20:26.035Z,2.07
2022-08-02T11:22:54.143Z,1.90
2022-08-02T11:25:23.851Z,1.93
2022-08-02T11:27:51.486Z,3.93
2022-08-02T11:30:20.660Z,1.93
2022-08-02T11:32:57.650Z,2.00
2022-08-02T11:35:32.068Z,1.80
2022-08-02T11:37:59.398Z,1.90
2022-08-02T11:40:37.631Z,1.83
2022-08-02T11:43:16.336Z,1.90
2022-08-02T11:45:43.024Z,2.33
2022-08-02T11:48:09.624Z,2.07
2022-08-02T11:50:36.221Z,2.70
2022-08-02T11:53:12.936Z,2.10
2022-08-02T11:55:39.600Z,2.20
2022-08-02T11:58:07.965Z,1.87
2022-08-02T12:00:35.478Z,2.30
2022-08-02T12:03:02.280Z,1.90
2022-08-02T12:08:19.147Z,1.80
2022-08-02T12:10:49.512Z,2.20
2022-08-02T12:13:16.109Z,2.47
2022-08-02T12:15:45.408Z,1.90
2022-08-02T12:18:35.230Z,2.10
2022-08-02T12:21:02.933Z,1.80
2022-08-02T12:23:29.873Z,2.13
2022-08-02T12:26:06.989Z,1.93
2022-08-02T12:28:35.477Z,1.97
2022-08-02T12:31:02.388Z,1.83
2022-08-02T12:33:44.323Z,1.47
2022-08-02T12:36:21.747Z,1.80
2022-08-02T12:38:59.170Z,4.37
2022-08-02T12:41:30.899Z,2.10
2022-08-02T12:43:59.093Z,1.90
2022-08-02T12:46:26.261Z,1.80
2022-08-02T12:49:16.691Z,1.80
2022-08-02T12:51:54.553Z,1.90
2022-08-02T12:54:39.308Z,2.30
2022-08-02T12:57:13.150Z,1.93
2022-08-02T12:59:41.010Z,2.20
2022-08-02T13:02:11.479Z,1.77
2022-08-02T13:04:39.019Z,1.80
2022-08-02T13:07:06.179Z,1.80
2022-08-02T13:09:37.567Z,2.05
2022-08-02T13:12:05.805Z,1.63
2022-08-02T13:14:36.867Z,1.60
2022-08-02T13:17:07.244Z,2.38
2022-08-02T13:19:34.784Z,1.70
2022-08-02T13:22:03.973Z,2.80
2022-08-02T13:24:40.670Z,1.70
2022-08-02T13:27:20.939Z,1.80
2022-08-02T13:29:48.923Z,3.10
2022-08-02T13:32:16.473Z,1.98
2022-08-02T13:34:43.531Z,1.70
2022-08-02T13:37:10.476Z,2.00
2022-08-02T13:39:37.172Z,1.92
2022-08-02T13:42:03.969Z,1.70
2022-08-02T13:44:32.602Z,2.15
2022-08-02T13:46:59.223Z,1.58
2022-08-02T13:49:49.610Z,1.80
2022-08-02T13:52:12.802Z,1.70
2022-08-02T13:54:39.663Z,1.90
2022-08-02T13:57:06.366Z,1.80
2022-08-02T13:59:57.994Z,1.90
2022-08-02T14:02:19.820Z,1.60
2022-08-02T14:04:46.751Z,1.60
2022-08-02T14:07:13.506Z,2.20
2022-08-02T14:09:40.423Z,1.80
2022-08-02T14:12:09.807Z,1.70
2022-08-02T14:14:36.737Z,1.70
2022-08-02T14:17:03.505Z,1.90
2022-08-02T14:19:30.297Z,2.35
2022-08-02T14:22:21.119Z,1.67
2022-08-02T14:24:44.621Z,1.75
2022-08-02T14:27:11.579Z,2.38
2022-08-02T14:29:38.252Z,2.92
2022-08-02T14:32:05.584Z,1.70
2022-08-02T14:34:32.505Z,1.73
2022-08-02T14:36:59.315Z,1.95
2022-08-02T14:39:25.921Z,1.70
2022-08-02T14:41:58.048Z,1.50
2022-08-02T14:44:27.006Z,1.77
2022-08-02T14:46:53.799Z,1.63
2022-08-02T14:49:25.516Z,1.85
2022-08-02T14:51:54.069Z,1.70
2022-08-02T14:54:21.430Z,1.42
2022-08-02T14:56:56.943Z,1.45
2022-08-02T14:59:23.588Z,2.55
2022-08-02T15:01:50.262Z,1.83
2022-08-02T15:04:17.007Z,1.70
2022-08-02T15:06:43.627Z,1.70
2022-08-02T15:09:10.301Z,1.60
2022-08-02T15:11:47.434Z,2.47
2022-08-02T15:14:20.523Z,2.25
2022-08-02T15:16:56.953Z,2.63
2022-08-02T15:19:25.910Z,2.63
2022-08-02T15:22:03.195Z,1.65
2022-08-02T15:24:30.048Z,2.72
2022-08-02T15:26:57.095Z,1.98
2022-08-02T15:29:23.733Z,1.58
2022-08-02T15:31:50.418Z,2.30
2022-08-02T15:34:18.793Z,1.73
2022-08-02T15:36:45.592Z,2.10
2022-08-02T15:39:12.502Z,2.35
2022-08-02T15:41:39.164Z,2.55
2022-08-02T15:44:09.053Z,2.78
2022-08-02T15:46:37.378Z,2.28
2022-08-02T15:49:04.039Z,1.98
2022-08-02T15:51:30.837Z,1.85
2022-08-02T15:53:57.454Z,2.10
2022-08-02T15:56:24.572Z,1.38
2022-08-02T15:58:55.992Z,1.85
2022-08-02T16:01:23.766Z,1.40
2022-08-02T16:03:50.565Z,1.95
2022-08-02T16:06:17.537Z,1.80
2022-08-02T16:08:53.232Z,3.15
2022-08-02T16:11:22.264Z,1.80
2022-08-02T16:13:54.369Z,3.88
2022-08-02T16:16:27.417Z,3.35
2022-08-02T16:18:55.075Z,2.33
2022-08-02T16:21:23.493Z,2.00
2022-08-02T16:24:01.644Z,2.72
2022-08-02T16:26:31.158Z,1.70
2022-08-02T16:28:58.901Z,2.47
2022-08-02T16:31:25.624Z,2.05
2022-08-02T16:33:56.130Z,2.55
2022-08-02T16:36:23.731Z,1.90
2022-08-02T16:38:50.381Z,1.80
2022-08-02T16:41:17.121Z,1.75
2022-08-02T16:43:43.708Z,1.63
2022-08-02T16:46:10.415Z,1.80
2022-08-02T16:48:37.294Z,1.92
2022-08-02T16:51:04.616Z,2.03
2022-08-02T16:54:00.227Z,1.40
2022-08-02T16:56:30.477Z,1.90
2022-08-02T16:58:59.376Z,2.70
2022-08-02T17:02:10.922Z,3.73
2022-08-02T17:04:15.409Z,2.23
2022-08-02T17:06:47.304Z,4.23
2022-08-02T17:10:01.863Z,2.00
2022-08-02T17:12:07.632Z,1.90
2022-08-02T17:14:41.885Z,2.10
2022-08-02T17:17:22.068Z,2.00
2022-08-02T17:20:00.622Z,2.43
2022-08-02T17:22:27.306Z,4.43
2022-08-02T17:24:54.176Z,5.37
2022-08-02T17:27:20.733Z,5.30
2022-08-02T17:29:47.357Z,5.20
2022-08-02T17:32:15.493Z,4.67
2022-08-02T17:34:56.686Z,2.60
2022-08-02T17:37:27.291Z,2.53
2022-08-02T17:39:55.645Z,3.17
2022-08-02T17:42:24.105Z,2.93
2022-08-02T17:44:53.271Z,2.83
2022-08-02T17:47:20.059Z,2.30
2022-08-02T17:49:48.531Z,2.30
2022-08-02T17:52:50.346Z,2.10
2022-08-02T17:55:04.264Z,2.10
2022-08-02T18:00:17.995Z,2.43
2022-08-02T18:02:52.940Z,2.10
2022-08-02T18:05:22.855Z,1.90
2022-08-02T18:07:55.337Z,2.43
2022-08-02T18:10:24.886Z,3.17
2022-08-02T18:12:53.435Z,2.00
2022-08-02T18:15:23.107Z,2.00
2022-08-02T18:17:49.862Z,2.10
2022-08-02T18:20:17.129Z,2.03
2022-08-02T18:22:44.904Z,3.80
2022-08-02T18:25:18.337Z,2.43
2022-08-02T18:27:58.624Z,3.57
2022-08-02T18:30:28.384Z,2.77
2022-08-02T18:33:59.848Z,2.17
2022-08-02T18:35:43.729Z,5.57
2022-08-02T18:38:11.794Z,2.50
2022-08-02T18:40:39.168Z,2.37
2022-08-02T18:43:07.648Z,4.10
2022-08-02T18:46:05.846Z,2.60
2022-08-02T18:48:46.819Z,2.87
2022-08-02T18:51:14.948Z,2.30
2022-08-02T18:53:42.814Z,2.20
2022-08-02T18:56:19.988Z,5.40
2022-08-02T18:58:55.271Z,3.77
2022-08-02T19:01:31.835Z,5.80
2022-08-02T19:04:00.068Z,4.67
2022-08-02T19:06:28.861Z,4.97
2022-08-02T19:09:05.856Z,3.30
2022-08-02T19:11:47.432Z,3.77
2022-08-02T19:17:53.244Z,3.07
2022-08-02T19:19:51.235Z,2.47
2022-08-02T19:22:26.761Z,2.87
2022-08-02T19:25:01.472Z,2.73
2022-08-02T19:27:32.964Z,2.30
2022-08-02T19:30:02.307Z,2.53
2022-08-02T19:32:40.403Z,2.70
2022-08-02T19:35:19.154Z,5.37
2022-08-02T19:37:59.090Z,4.80
2022-08-02T19:40:44.306Z,3.63
2022-08-02T19:44:21.670Z,3.80
2022-08-02T19:45:59.183Z,3.23
2022-08-02T19:48:27.079Z,3.97
2022-08-02T19:50:56.309Z,3.50
2022-08-02T19:53:29.108Z,3.83
2022-08-02T19:56:12.477Z,4.17
2022-08-02T19:58:47.600Z,4.13
2022-08-02T20:01:16.809Z,4.03
2022-08-02T20:03:52.331Z,4.40
2022-08-02T20:06:19.938Z,3.80
2022-08-02T20:08:59.362Z,3.50
2022-08-02T20:11:29.260Z,3.40
2022-08-02T20:14:02.937Z,5.20
2022-08-02T20:16:32.884Z,2.63
2022-08-02T20:19:00.636Z,3.20
2022-08-02T20:21:36.621Z,4.63
2022-08-02T20:24:07.534Z,3.87
2022-08-02T20:26:35.411Z,4.30
2022-08-02T20:29:04.059Z,4.03
2022-08-02T20:31:30.961Z,3.90
2022-08-02T20:33:57.693Z,6.33
2022-08-02T20:36:27.786Z,3.63
2022-08-02T20:38:54.822Z,3.73
2022-08-02T20:41:23.086Z,3.83
2022-08-02T20:43:50.203Z,4.67
2022-08-02T20:46:16.899Z,4.23
2022-08-02T20:48:44.197Z,5.00
2022-08-02T20:51:12.390Z,3.83
2022-08-02T20:53:54.952Z,4.20
2022-08-02T20:56:23.378Z,4.10
2022-08-02T20:58:52.198Z,3.70
2022-08-02T21:01:21.302Z,4.47
2022-08-02T21:03:53.663Z,3.93
2022-08-02T21:06:28.016Z,3.60
2022-08-02T21:08:55.905Z,3.50
2022-08-02T21:11:25.542Z,3.83
2022-08-02T21:14:05.764Z,3.60
2022-08-02T21:16:33.796Z,3.63
2022-08-02T21:19:00.675Z,3.43
2022-08-02T21:21:28.255Z,3.90
2022-08-02T21:23:56.697Z,3.57
2022-08-02T21:26:28.041Z,3.40
2022-08-02T21:28:55.420Z,3.50
2022-08-02T21:31:22.165Z,3.13
2022-08-02T21:33:58.445Z,3.40
2022-08-02T21:36:31.652Z,3.67
2022-08-02T21:39:04.274Z,4.83
2022-08-02T21:41:39.720Z,5.93
2022-08-02T21:44:15.853Z,7.50
2022-08-02T21:46:46.650Z,9.03
2022-08-02T21:49:17.118Z,10.03
2022-08-02T21:51:43.842Z,9.33
2022-08-02T21:54:20.308Z,9.00
2022-08-02T21:56:52.740Z,8.30
2022-08-02T21:59:25.427Z,7.20
2022-08-02T22:01:57.394Z,5.67
2022-08-02T22:04:25.704Z,5.83
2022-08-02T22:06:53.550Z,6.50
2022-08-02T22:09:43.228Z,5.00
2022-08-02T22:14:56.737Z,3.60
2022-08-02T22:17:50.598Z,3.40
2022-08-02T22:20:19.674Z,3.60
2022-08-02T22:22:50.078Z,3.50
2022-08-02T22:25:21.574Z,3.03
2022-08-02T22:28:35.652Z,3.70
2022-08-02T22:30:56.881Z,3.13
2022-08-02T22:33:47.209Z,3.50
2022-08-02T22:36:28.450Z,2.77
2022-08-02T22:38:55.201Z,3.30
2022-08-02T22:41:22.482Z,3.27
2022-08-02T22:43:49.568Z,3.30
2022-08-02T22:46:16.726Z,3.30
2022-08-02T22:48:44.575Z,3.57
2022-08-02T22:51:13.487Z,3.40
2022-08-02T22:53:41.073Z,3.07
2022-08-02T22:56:08.034Z,4.30
2022-08-02T22:58:47.333Z,4.70
2022-08-02T22:58:48.754Z,2.20
2022-08-02T22:59:07.097Z,4.90
2022-08-02T23:01:21.900Z,4.73
2022-08-02T23:03:48.696Z,5.43
2022-08-02T23:06:17.524Z,5.83
2022-08-02T23:08:44.145Z,6.00
2022-08-02T23:11:14.253Z,6.03
2022-08-02T23:13:41.314Z,5.83
2022-08-02T23:16:26.871Z,5.50
2022-08-02T23:19:12.141Z,5.13
2022-08-02T23:22:01.234Z,4.80
2022-08-02T23:24:26.673Z,4.53
2022-08-02T23:26:53.301Z,4.30
2022-08-02T23:29:19.981Z,4.47
2022-08-02T23:31:46.595Z,4.60
2022-08-02T23:34:13.290Z,3.50
2022-08-02T23:36:40.541Z,3.70
2022-08-02T23:39:07.129Z,4.23
2022-08-02T23:41:34.761Z,3.70
2022-08-02T23:44:13.594Z,3.70
2022-08-02T23:46:43.151Z,3.60
2022-08-02T23:49:10.956Z,3.50
2022-08-02T23:51:37.783Z,3.40
2022-08-02T23:54:04.652Z,3.30
2022-08-02T23:56:31.271Z,3.53
2022-08-02T23:58:57.840Z,3.63
